createdAt,value
2022-10-04T00:01:42.232Z,5.50
2022-10-04T00:04:10.941Z,5.60
2022-10-04T00:06:38.200Z,5.60
2022-10-04T00:09:12.305Z,5.70
2022-10-04T00:11:43.456Z,5.70
2022-10-04T00:14:22.187Z,5.80
2022-10-04T00:16:49.221Z,5.80
2022-10-04T00:19:15.853Z,5.90
2022-10-04T00:21:51.740Z,5.90
2022-10-04T00:24:22.503Z,5.90
2022-10-04T00:26:49.091Z,5.90
2022-10-04T00:29:27.996Z,5.90
2022-10-04T00:32:09.887Z,5.90
2022-10-04T00:34:36.459Z,5.90
2022-10-04T00:37:12.327Z,5.80
2022-10-04T00:39:40.410Z,5.80
2022-10-04T00:42:07.040Z,5.80
2022-10-04T00:44:42.781Z,5.80
2022-10-04T00:47:31.566Z,5.70
2022-10-04T00:50:12.844Z,5.70
2022-10-04T00:52:42.510Z,5.60
2022-10-04T00:55:09.854Z,5.60
2022-10-04T00:57:42.824Z,5.60
2022-10-04T01:00:14.900Z,5.60
2022-10-04T01:03:00.338Z,5.60
2022-10-04T01:05:30.927Z,5.50
2022-10-04T01:08:07.148Z,5.50
2022-10-04T01:10:52.660Z,5.40
2022-10-04T01:13:20.213Z,5.40
2022-10-04T01:15:56.946Z,5.30
2022-10-04T01:18:23.567Z,5.30
2022-10-04T01:21:05.461Z,5.30
2022-10-04T01:23:43.116Z,5.30
2022-10-04T01:26:32.220Z,5.30
2022-10-04T01:29:07.328Z,5.30
2022-10-04T01:31:35.277Z,5.30
2022-10-04T01:34:02.392Z,5.30
2022-10-04T01:36:29.295Z,5.20
2022-10-04T01:38:56.009Z,5.20
2022-10-04T01:41:46.144Z,5.10
2022-10-04T01:44:20.067Z,5.10
2022-10-04T01:46:47.172Z,5.10
2022-10-04T01:49:17.238Z,5.10
2022-10-04T01:51:47.975Z,5.00
2022-10-04T01:54:19.769Z,5.00
2022-10-04T01:56:49.319Z,5.00
2022-10-04T01:59:19.760Z,5.00
2022-10-04T02:01:48.305Z,4.90
2022-10-04T02:04:21.894Z,4.90
2022-10-04T02:06:53.023Z,4.90
2022-10-04T02:09:22.284Z,4.80
2022-10-04T02:11:53.088Z,4.80
2022-10-04T02:14:24.535Z,4.80
2022-10-04T02:16:52.347Z,4.80
2022-10-04T02:19:19.512Z,4.80
2022-10-04T02:21:46.838Z,4.70
2022-10-04T02:24:13.684Z,4.70
2022-10-04T02:26:40.307Z,4.70
2022-10-04T02:29:06.984Z,4.70
2022-10-04T02:31:52.161Z,4.70
2022-10-04T02:34:19.187Z,4.70
2022-10-04T02:36:46.412Z,4.60
2022-10-04T02:39:15.619Z,4.60
2022-10-04T02:41:55.282Z,4.60
2022-10-04T02:44:26.328Z,4.60
2022-10-04T02:46:56.179Z,4.60
2022-10-04T02:49:34.108Z,4.60
2022-10-04T02:52:07.447Z,4.70
2022-10-04T02:54:38.466Z,4.70
2022-10-04T02:57:05.654Z,4.70
2022-10-04T02:59:35.422Z,4.70
2022-10-04T03:02:02.702Z,4.70
2022-10-04T03:04:32.443Z,4.70
2022-10-04T03:07:01.184Z,4.70
2022-10-04T03:09:30.003Z,4.60
2022-10-04T03:11:57.137Z,4.60
2022-10-04T03:14:25.167Z,4.60
2022-10-04T03:16:53.746Z,4.60
2022-10-04T03:19:22.835Z,4.50
2022-10-04T03:21:51.300Z,4.50
2022-10-04T03:24:20.347Z,4.50
2022-10-04T03:26:49.130Z,4.50
2022-10-04T03:29:16.602Z,4.50
2022-10-04T03:31:47.946Z,4.40
2022-10-04T03:34:22.815Z,4.30
2022-10-04T03:36:50.706Z,4.30
2022-10-04T03:39:37.568Z,4.30
2022-10-04T03:42:07.096Z,4.30
2022-10-04T03:44:34.829Z,4.30
2022-10-04T03:47:02.315Z,4.30
2022-10-04T03:49:32.466Z,4.20
2022-10-04T03:51:59.904Z,4.20
2022-10-04T03:54:27.990Z,4.20
2022-10-04T03:56:55.448Z,4.20
2022-10-04T03:59:24.308Z,4.20
2022-10-04T04:02:11.231Z,4.20
2022-10-04T04:04:47.172Z,4.20
2022-10-04T04:07:17.143Z,4.20
2022-10-04T04:09:43.701Z,4.20
2022-10-04T04:12:13.624Z,4.20
2022-10-04T04:14:41.059Z,4.20
2022-10-04T04:17:26.054Z,4.20
2022-10-04T04:20:06.187Z,4.20
2022-10-04T04:22:35.208Z,4.30
2022-10-04T04:25:02.870Z,4.30
2022-10-04T04:27:31.013Z,4.30
2022-10-04T04:32:36.202Z,4.20
2022-10-04T04:35:08.415Z,4.20
2022-10-04T04:37:35.624Z,4.20
2022-10-04T04:40:22.391Z,4.10
2022-10-04T04:42:49.783Z,4.10
2022-10-04T04:45:22.786Z,4.10
2022-10-04T04:47:50.892Z,4.10
2022-10-04T04:50:25.382Z,4.00
2022-10-04T04:52:57.960Z,4.00
2022-10-04T04:55:34.005Z,4.00
2022-10-04T04:58:20.055Z,4.00
2022-10-04T05:00:48.123Z,3.90
2022-10-04T05:03:19.884Z,3.90
2022-10-04T05:05:49.622Z,3.90
2022-10-04T05:08:16.342Z,3.90
2022-10-04T05:10:45.529Z,3.90
2022-10-04T05:13:12.963Z,3.90
2022-10-04T05:15:40.688Z,3.90
2022-10-04T05:18:17.730Z,4.00
2022-10-04T05:20:48.344Z,4.00
2022-10-04T05:23:14.986Z,4.00
2022-10-04T05:25:41.724Z,4.00
2022-10-04T05:28:11.025Z,4.10
2022-10-04T05:30:43.563Z,4.10
2022-10-04T05:33:12.036Z,4.10
2022-10-04T05:35:48.451Z,4.20
2022-10-04T05:38:23.643Z,4.30
2022-10-04T05:40:56.834Z,4.30
2022-10-04T05:43:23.443Z,4.40
2022-10-04T05:46:07.284Z,4.50
2022-10-04T05:48:34.743Z,4.70
2022-10-04T05:51:01.355Z,4.80
2022-10-04T05:53:35.804Z,4.90
2022-10-04T05:56:12.566Z,5.10
2022-10-04T05:58:53.747Z,5.30
2022-10-04T06:01:23.518Z,5.40
2022-10-04T06:03:52.981Z,5.60
2022-10-04T06:06:31.863Z,5.70
2022-10-04T06:09:21.805Z,5.90
2022-10-04T06:12:07.263Z,6.10
2022-10-04T06:15:09.476Z,6.30
2022-10-04T06:17:41.911Z,6.50
2022-10-04T06:20:27.658Z,6.70
2022-10-04T06:22:58.261Z,6.90
2022-10-04T06:25:43.400Z,7.10
2022-10-04T06:28:13.279Z,7.20
2022-10-04T06:30:53.607Z,7.40
2022-10-04T06:33:34.967Z,7.40
2022-10-04T06:36:10.941Z,7.50
2022-10-04T06:38:49.834Z,7.60
2022-10-04T06:41:16.395Z,7.70
2022-10-04T06:43:44.768Z,7.70
2022-10-04T06:46:21.337Z,7.80
2022-10-04T06:49:03.419Z,7.80
2022-10-04T06:52:05.652Z,7.90
2022-10-04T06:54:39.942Z,8.00
2022-10-04T06:57:15.809Z,8.20
2022-10-04T06:59:52.596Z,8.30
2022-10-04T07:02:22.195Z,8.40
2022-10-04T07:05:08.126Z,8.50
2022-10-04T07:07:41.885Z,8.70
2022-10-04T07:10:08.466Z,9.00
2022-10-04T07:12:38.696Z,9.20
2022-10-04T07:15:09.949Z,9.40
2022-10-04T07:17:38.512Z,9.70
2022-10-04T07:20:05.971Z,9.90
2022-10-04T07:22:45.120Z,10.10
2022-10-04T07:25:33.879Z,10.30
2022-10-04T07:28:24.028Z,10.50
2022-10-04T07:31:01.145Z,10.80
2022-10-04T07:33:29.488Z,11.10
2022-10-04T07:36:03.587Z,11.40
2022-10-04T07:38:32.115Z,11.60
2022-10-04T07:41:07.518Z,11.90
2022-10-04T07:43:39.260Z,12.10
2022-10-04T07:46:17.056Z,12.30
2022-10-04T07:48:43.963Z,12.60
2022-10-04T07:51:24.175Z,12.90
2022-10-04T07:53:56.174Z,13.20
2022-10-04T07:56:27.045Z,13.60
2022-10-04T07:58:53.626Z,13.90
2022-10-04T08:01:26.094Z,14.20
2022-10-04T08:04:11.148Z,14.40
2022-10-04T08:06:41.168Z,14.70
2022-10-04T08:09:14.129Z,14.90
2022-10-04T08:11:52.135Z,15.00
2022-10-04T08:14:27.675Z,15.10
2022-10-04T08:16:54.237Z,15.40
2022-10-04T08:19:36.178Z,15.70
2022-10-04T08:22:13.913Z,16.10
2022-10-04T08:24:59.643Z,16.80
2022-10-04T08:27:29.348Z,17.50
2022-10-04T08:30:02.124Z,18.20
2022-10-04T08:32:34.775Z,18.90
2022-10-04T08:35:20.415Z,19.50
2022-10-04T08:38:05.871Z,20.10
2022-10-04T08:40:33.242Z,20.30
2022-10-04T08:43:19.727Z,19.90
2022-10-04T08:46:05.170Z,19.60
2022-10-04T08:48:33.002Z,19.80
2022-10-04T08:50:59.570Z,20.20
2022-10-04T08:53:36.611Z,20.70
2022-10-04T08:56:10.217Z,21.10
2022-10-04T08:58:46.104Z,21.50
2022-10-04T09:01:35.994Z,21.90
2022-10-04T09:04:14.899Z,22.40
2022-10-04T09:07:00.275Z,22.70
2022-10-04T09:09:34.949Z,22.80
2022-10-04T09:12:20.414Z,22.90
2022-10-04T09:15:06.008Z,23.00
2022-10-04T09:17:39.492Z,23.20
2022-10-04T09:20:36.728Z,23.20
2022-10-04T09:23:06.724Z,23.20
2022-10-04T09:25:52.165Z,23.10
2022-10-04T09:28:34.188Z,22.90
2022-10-04T09:31:10.702Z,22.30
2022-10-04T09:33:40.455Z,21.80
2022-10-04T09:36:10.036Z,21.20
2022-10-04T09:38:42.702Z,20.70
2022-10-04T09:41:42.099Z,20.20
2022-10-04T09:44:23.770Z,19.90
2022-10-04T09:47:10.534Z,19.90
2022-10-04T09:49:46.340Z,19.80
2022-10-04T09:52:31.874Z,20.00
2022-10-04T09:54:58.586Z,20.00
2022-10-04T09:57:43.963Z,19.90
2022-10-04T10:00:24.816Z,19.70
2022-10-04T10:02:57.666Z,19.30
2022-10-04T10:05:45.187Z,19.10
2022-10-04T10:08:16.615Z,19.00
2022-10-04T10:11:09.572Z,18.80
2022-10-04T10:13:45.157Z,18.80
2022-10-04T10:16:19.186Z,18.80
2022-10-04T10:18:48.839Z,18.80
2022-10-04T10:21:34.901Z,18.80
2022-10-04T10:24:04.514Z,18.60
2022-10-04T10:26:49.595Z,18.40
2022-10-04T10:29:16.263Z,18.20
2022-10-04T10:32:18.353Z,18.20
2022-10-04T10:34:47.715Z,18.20
2022-10-04T10:37:25.626Z,18.20
2022-10-04T10:40:10.895Z,18.10
2022-10-04T10:42:38.038Z,18.10
2022-10-04T10:45:23.391Z,18.10
2022-10-04T10:48:03.160Z,18.10
2022-10-04T10:50:55.843Z,18.10
2022-10-04T10:53:43.045Z,18.10
2022-10-04T10:56:09.683Z,18.10
2022-10-04T10:58:42.242Z,18.20
2022-10-04T11:01:27.828Z,18.30
2022-10-04T11:03:54.573Z,18.50
2022-10-04T11:06:30.751Z,18.80
2022-10-04T11:08:57.317Z,18.90
2022-10-04T11:11:42.758Z,19.10
2022-10-04T11:14:11.847Z,19.20
2022-10-04T11:17:07.763Z,19.20
2022-10-04T11:20:02.868Z,19.20
2022-10-04T11:22:45.346Z,19.00
2022-10-04T11:25:18.155Z,18.80
2022-10-04T11:27:49.332Z,18.60
2022-10-04T11:30:26.295Z,18.40
2022-10-04T11:32:52.879Z,18.20
2022-10-04T11:35:28.532Z,18.20
2022-10-04T11:37:55.128Z,18.10
2022-10-04T11:40:27.883Z,17.90
2022-10-04T11:43:14.438Z,17.80
2022-10-04T11:45:56.290Z,17.70
2022-10-04T11:48:41.643Z,17.70
2022-10-04T11:51:23.589Z,17.80
2022-10-04T11:54:04.111Z,17.80
2022-10-04T11:56:36.742Z,17.80
2022-10-04T11:59:25.238Z,17.80
2022-10-04T12:01:51.947Z,17.80
2022-10-04T12:04:53.837Z,17.70
2022-10-04T12:07:23.578Z,17.70
2022-10-04T12:10:10.716Z,17.70
2022-10-04T12:12:37.302Z,17.70
2022-10-04T12:15:13.789Z,17.70
2022-10-04T12:17:59.247Z,17.70
2022-10-04T12:20:38.866Z,17.70
2022-10-04T12:23:05.537Z,17.70
2022-10-04T12:25:44.334Z,17.70
2022-10-04T12:28:34.662Z,17.80
2022-10-04T12:31:07.712Z,17.80
2022-10-04T12:33:46.567Z,17.90
2022-10-04T12:36:31.990Z,17.90
2022-10-04T12:38:58.590Z,17.90
2022-10-04T12:41:31.308Z,17.90
2022-10-04T12:44:27.456Z,17.90
2022-10-04T12:47:04.086Z,18.00
2022-10-04T12:49:49.438Z,17.90
2022-10-04T12:52:39.082Z,17.90
2022-10-04T12:55:18.097Z,17.80
2022-10-04T12:57:50.174Z,17.70
2022-10-04T13:00:16.787Z,17.50
2022-10-04T13:02:43.352Z,17.40
2022-10-04T13:05:26.243Z,17.30
2022-10-04T13:08:06.115Z,17.30
2022-10-04T13:10:35.906Z,17.20
2022-10-04T13:13:14.384Z,17.10
2022-10-04T13:18:48.139Z,16.90
2022-10-04T13:21:18.725Z,16.80
2022-10-04T13:24:00.441Z,16.60
2022-10-04T13:26:48.814Z,16.50
2022-10-04T13:29:33.723Z,16.50
2022-10-04T13:32:00.609Z,16.40
2022-10-04T13:34:49.100Z,16.20
2022-10-04T13:37:18.933Z,16.20
2022-10-04T13:40:04.083Z,16.20
2022-10-04T13:42:43.044Z,16.20
2022-10-04T13:45:09.620Z,16.10
2022-10-04T13:47:39.227Z,16.10
2022-10-04T13:50:05.839Z,16.10
2022-10-04T13:52:58.709Z,16.10
2022-10-04T13:55:58.333Z,16.10
2022-10-04T13:58:32.035Z,16.10
2022-10-04T14:01:17.278Z,16.00
2022-10-04T14:04:02.722Z,16.00
2022-10-04T14:06:48.290Z,16.00
2022-10-04T14:09:33.833Z,16.00
2022-10-04T14:12:39.630Z,16.10
2022-10-04T14:15:06.215Z,16.10
2022-10-04T14:17:32.812Z,16.10
2022-10-04T14:20:02.602Z,16.10
2022-10-04T14:22:29.233Z,16.10
2022-10-04T14:25:05.772Z,16.20
2022-10-04T14:27:51.698Z,16.20
2022-10-04T14:30:23.279Z,16.30
2022-10-04T14:33:08.310Z,16.30
2022-10-04T14:35:41.552Z,16.30
2022-10-04T14:38:11.184Z,16.30
2022-10-04T14:40:40.784Z,16.40
2022-10-04T14:43:26.281Z,16.40
2022-10-04T14:45:56.177Z,16.40
2022-10-04T14:48:25.623Z,16.40
2022-10-04T14:50:52.210Z,16.40
2022-10-04T14:53:18.791Z,16.30
2022-10-04T14:55:45.391Z,16.30
2022-10-04T14:58:15.613Z,16.20
2022-10-04T15:00:55.803Z,16.20
2022-10-04T15:03:29.011Z,16.20
2022-10-04T15:06:19.619Z,16.10
2022-10-04T15:09:01.710Z,16.10
2022-10-04T15:11:35.433Z,16.00
2022-10-04T15:14:04.689Z,16.00
2022-10-04T15:16:43.919Z,16.00
2022-10-04T15:19:19.934Z,15.90
2022-10-04T15:21:55.775Z,15.90
2022-10-04T15:24:27.648Z,15.80
2022-10-04T15:26:57.064Z,15.80
2022-10-04T15:29:26.727Z,15.70
2022-10-04T15:32:14.117Z,15.70
2022-10-04T15:34:42.528Z,15.70
2022-10-04T15:37:09.853Z,15.70
2022-10-04T15:39:58.111Z,15.60
2022-10-04T15:42:29.955Z,15.50
2022-10-04T15:45:18.276Z,15.50
2022-10-04T15:48:00.391Z,15.50
2022-10-04T15:50:56.476Z,15.40
2022-10-04T15:53:41.804Z,15.40
2022-10-04T15:56:08.538Z,15.30
2022-10-04T15:58:54.433Z,15.20
2022-10-04T16:01:39.624Z,15.20
2022-10-04T16:04:18.955Z,15.10
2022-10-04T16:06:50.995Z,15.10
2022-10-04T16:09:30.034Z,15.00
2022-10-04T16:12:02.663Z,14.90
2022-10-04T16:14:34.529Z,14.80
2022-10-04T16:17:36.767Z,14.70
2022-10-04T16:20:15.893Z,14.50
2022-10-04T16:23:02.696Z,14.40
2022-10-04T16:25:35.912Z,14.40
2022-10-04T16:28:19.267Z,14.20
2022-10-04T16:31:04.530Z,14.10
2022-10-04T16:33:42.119Z,14.00
2022-10-04T16:36:14.247Z,13.80
2022-10-04T16:39:06.675Z,13.70
2022-10-04T16:41:56.313Z,13.60
2022-10-04T16:44:32.631Z,13.40
2022-10-04T16:47:01.323Z,13.20
2022-10-04T16:49:31.462Z,13.10
2022-10-04T16:52:05.682Z,13.00
2022-10-04T16:54:32.272Z,12.80
2022-10-04T16:57:00.638Z,12.70
2022-10-04T16:59:39.507Z,12.60
2022-10-04T17:02:15.183Z,12.40
2022-10-04T17:04:49.296Z,12.30
2022-10-04T17:07:31.153Z,12.20
2022-10-04T17:10:05.896Z,12.00
2022-10-04T17:12:37.235Z,11.90
2022-10-04T17:15:03.885Z,11.80
2022-10-04T17:17:33.288Z,11.70
2022-10-04T17:20:23.235Z,11.60
2022-10-04T17:22:58.973Z,11.50
2022-10-04T17:25:27.596Z,11.40
2022-10-04T17:28:14.365Z,11.30
2022-10-04T17:30:59.968Z,11.20
2022-10-04T17:33:35.849Z,11.10
2022-10-04T17:36:08.542Z,11.00
2022-10-04T17:38:35.479Z,10.90
2022-10-04T17:41:04.880Z,10.80
2022-10-04T17:44:03.648Z,10.70
2022-10-04T17:47:02.862Z,10.70
2022-10-04T17:50:20.306Z,10.60
2022-10-04T17:53:13.055Z,10.50
2022-10-04T17:55:45.949Z,10.40
2022-10-04T17:58:12.735Z,10.40
2022-10-04T18:00:55.477Z,10.30
2022-10-04T18:03:25.072Z,10.30
2022-10-04T18:05:53.039Z,10.20
2022-10-04T18:08:22.690Z,10.10
2022-10-04T18:11:03.815Z,10.10
2022-10-04T18:13:34.635Z,10.00
2022-10-04T18:16:04.033Z,10.00
2022-10-04T18:18:36.906Z,9.90
2022-10-04T18:21:18.338Z,9.90
2022-10-04T18:23:53.666Z,9.80
2022-10-04T18:26:20.962Z,9.70
2022-10-04T18:28:48.987Z,9.70
2022-10-04T18:31:34.381Z,9.70
2022-10-04T18:34:10.079Z,9.60
2022-10-04T18:36:50.897Z,9.50
2022-10-04T18:39:18.818Z,9.50
2022-10-04T18:41:54.380Z,9.50
2022-10-04T18:44:23.326Z,9.40
2022-10-04T18:46:54.742Z,9.30
2022-10-04T18:49:25.446Z,9.30
2022-10-04T18:51:55.184Z,9.30
2022-10-04T18:54:27.788Z,9.20
2022-10-04T18:57:09.431Z,9.20
2022-10-04T19:00:05.088Z,9.20
2022-10-04T19:02:35.430Z,9.10
2022-10-04T19:05:07.069Z,9.10
2022-10-04T19:07:40.075Z,9.10
2022-10-04T19:10:11.765Z,9.00
2022-10-04T19:12:38.458Z,9.00
2022-10-04T19:15:14.561Z,9.00
2022-10-04T19:17:50.380Z,8.90
2022-10-04T19:20:22.626Z,8.90
2022-10-04T19:23:03.285Z,8.80
2022-10-04T19:25:41.117Z,8.80
2022-10-04T19:28:28.464Z,8.70
2022-10-04T19:31:27.532Z,8.70
2022-10-04T19:34:00.458Z,8.70
2022-10-04T19:36:39.273Z,8.60
2022-10-04T19:39:41.527Z,8.60
2022-10-04T19:42:11.326Z,8.60
2022-10-04T19:44:57.066Z,8.50
2022-10-04T19:47:35.908Z,8.50
2022-10-04T19:50:23.790Z,8.40
2022-10-04T19:52:53.684Z,8.40
2022-10-04T19:55:20.480Z,8.40
2022-10-04T19:58:05.667Z,8.40
2022-10-04T20:00:33.468Z,8.40
2022-10-04T20:03:00.087Z,8.40
2022-10-04T20:05:26.916Z,8.30
2022-10-04T20:08:04.783Z,8.30
2022-10-04T20:10:33.700Z,8.30
2022-10-04T20:13:21.491Z,8.20
2022-10-04T20:15:52.394Z,8.20
2022-10-04T20:18:34.561Z,8.20
2022-10-04T20:21:01.414Z,8.20
2022-10-04T20:23:40.517Z,8.10
2022-10-04T20:26:11.062Z,8.10
2022-10-04T20:28:40.306Z,8.10
2022-10-04T20:31:19.150Z,8.10
2022-10-04T20:33:46.881Z,8.00
2022-10-04T20:36:19.603Z,8.00
2022-10-04T20:38:46.195Z,8.00
2022-10-04T20:41:57.742Z,7.90
2022-10-04T20:44:56.408Z,7.90
2022-10-04T20:47:41.733Z,7.90
2022-10-04T20:50:23.667Z,7.90
2022-10-04T20:52:52.711Z,7.90
2022-10-04T20:55:21.297Z,7.90
2022-10-04T20:57:48.028Z,7.90
2022-10-04T21:00:22.256Z,7.80
2022-10-04T21:02:49.960Z,7.80
2022-10-04T21:05:27.205Z,7.80
2022-10-04T21:08:11.651Z,7.80
2022-10-04T21:10:38.337Z,7.80
2022-10-04T21:13:04.951Z,7.70
2022-10-04T21:15:31.572Z,7.70
2022-10-04T21:18:08.372Z,7.70
2022-10-04T21:20:48.112Z,7.70
2022-10-04T21:23:29.985Z,7.70
2022-10-04T21:26:16.892Z,7.70
2022-10-04T21:28:43.526Z,7.70
2022-10-04T21:31:10.119Z,7.60
2022-10-04T21:33:36.949Z,7.60
2022-10-04T21:36:04.342Z,7.60
2022-10-04T21:38:30.996Z,7.60
2022-10-04T21:40:57.671Z,7.60
2022-10-04T21:43:24.664Z,7.50
2022-10-04T21:45:51.634Z,7.50
2022-10-04T21:48:21.669Z,7.50
2022-10-04T21:50:49.060Z,7.50
2022-10-04T21:53:15.798Z,7.40
2022-10-04T21:55:42.414Z,7.40
2022-10-04T21:58:08.991Z,7.30
2022-10-04T22:00:35.763Z,7.30
2022-10-04T22:03:02.381Z,7.30
2022-10-04T22:05:29.049Z,7.30
2022-10-04T22:07:55.707Z,7.30
2022-10-04T22:10:22.312Z,7.20
2022-10-04T22:12:49.946Z,7.30
2022-10-04T22:15:16.684Z,7.30
2022-10-04T22:17:43.287Z,7.20
2022-10-04T22:20:09.909Z,7.20
2022-10-04T22:22:39.783Z,7.20
2022-10-04T22:25:14.356Z,7.20
2022-10-04T22:27:40.975Z,7.20
2022-10-04T22:30:11.363Z,7.10
2022-10-04T22:35:20.038Z,7.10
2022-10-04T22:37:47.632Z,7.10
2022-10-04T22:40:21.411Z,7.00
2022-10-04T22:42:54.895Z,7.00
2022-10-04T22:45:23.094Z,7.00
2022-10-04T22:47:50.937Z,7.00
2022-10-04T22:50:29.537Z,7.00
2022-10-04T22:52:56.491Z,7.00
2022-10-04T22:55:23.189Z,7.00
2022-10-04T22:57:49.927Z,7.00
2022-10-04T23:00:16.594Z,7.00
2022-10-04T23:02:43.310Z,6.90
2022-10-04T23:05:09.983Z,6.90
2022-10-04T23:07:38.575Z,6.90
2022-10-04T23:10:05.752Z,6.90
2022-10-04T23:12:32.395Z,6.90
2022-10-04T23:14:59.056Z,6.90
2022-10-04T23:17:30.143Z,6.90
2022-10-04T23:20:17.073Z,6.90
2022-10-04T23:22:47.690Z,6.80
2022-10-04T23:25:20.650Z,6.80
2022-10-04T23:27:47.584Z,6.70
2022-10-04T23:30:18.794Z,6.70
2022-10-04T23:32:47.063Z,6.70
2022-10-04T23:35:16.498Z,6.70
2022-10-04T23:37:43.267Z,6.70
2022-10-04T23:40:11.102Z,6.70
2022-10-04T23:42:37.864Z,6.70
2022-10-04T23:45:12.263Z,6.60
2022-10-04T23:47:38.924Z,6.60
2022-10-04T23:50:16.312Z,6.60
2022-10-04T23:52:43.035Z,6.50
2022-10-04T23:55:28.538Z,6.50
2022-10-04T23:57:55.135Z,6.50
